sensor_id;sensor_type;location;lat;lon;timestamp;temperature;humidity
15638;DHT22;26604;53.596;10.042;2022-10-31T00:01:09;21.30;27.70
15638;DHT22;26604;53.596;10.042;2022-10-31T00:03:36;21.40;27.60
15638;DHT22;26604;53.596;10.042;2022-10-31T00:06:03;21.30;27.50
15638;DHT22;26604;53.596;10.042;2022-10-31T00:08:30;21.40;27.50
15638;DHT22;26604;53.596;10.042;2022-10-31T00:10:57;21.30;27.50
15638;DHT22;26604;53.596;10.042;2022-10-31T00:13:24;21.30;27.30
15638;DHT22;26604;53.596;10.042;2022-10-31T00:15:50;21.30;27.60
15638;DHT22;26604;53.596;10.042;2022-10-31T00:18:19;21.30;27.30
15638;DHT22;26604;53.596;10.042;2022-10-31T00:20:46;21.30;27.20
15638;DHT22;26604;53.596;10.042;2022-10-31T00:23:13;21.40;27.30
15638;DHT22;26604;53.596;10.042;2022-10-31T00:25:39;21.30;27.00
15638;DHT22;26604;53.596;10.042;2022-10-31T00:28:07;21.40;26.90
15638;DHT22;26604;53.596;10.042;2022-10-31T00:30:35;21.30;26.90
15638;DHT22;26604;53.596;10.042;2022-10-31T00:33:03;21.30;26.80
15638;DHT22;26604;53.596;10.042;2022-10-31T00:35:31;21.30;26.80
15638;DHT22;26604;53.596;10.042;2022-10-31T00:37:58;21.30;26.60
15638;DHT22;26604;53.596;10.042;2022-10-31T00:40:25;21.30;26.50
15638;DHT22;26604;53.596;10.042;2022-10-31T00:42:52;21.30;26.40
15638;DHT22;26604;53.596;10.042;2022-10-31T00:45:19;21.30;26.30
15638;DHT22;26604;53.596;10.042;2022-10-31T00:47:45;21.30;26.30
15638;DHT22;26604;53.596;10.042;2022-10-31T00:50:12;21.30;26.20
15638;DHT22;26604;53.596;10.042;2022-10-31T00:52:40;21.30;26.10
15638;DHT22;26604;53.596;10.042;2022-10-31T00:55:07;21.30;26.00
15638;DHT22;26604;53.596;10.042;2022-10-31T00:57:34;21.30;26.00
15638;DHT22;26604;53.596;10.042;2022-10-31T01:00:01;21.30;25.90
15638;DHT22;26604;53.596;10.042;2022-10-31T01:02:28;21.30;25.80
15638;DHT22;26604;53.596;10.042;2022-10-31T01:04:54;21.30;25.70
15638;DHT22;26604;53.596;10.042;2022-10-31T01:07:21;21.30;25.60
15638;DHT22;26604;53.596;10.042;2022-10-31T01:09:49;21.30;25.70
15638;DHT22;26604;53.596;10.042;2022-10-31T01:12:16;21.30;25.60
15638;DHT22;26604;53.596;10.042;2022-10-31T01:14:44;21.30;25.50
15638;DHT22;26604;53.596;10.042;2022-10-31T01:17:11;21.30;25.50
15638;DHT22;26604;53.596;10.042;2022-10-31T01:19:38;21.30;25.40
15638;DHT22;26604;53.596;10.042;2022-10-31T01:22:04;21.30;25.40
15638;DHT22;26604;53.596;10.042;2022-10-31T01:24:31;21.30;25.30
15638;DHT22;26604;53.596;10.042;2022-10-31T01:26:59;21.30;25.40
15638;DHT22;26604;53.596;10.042;2022-10-31T01:29:26;21.30;25.30
15638;DHT22;26604;53.596;10.042;2022-10-31T01:31:53;21.30;25.30
15638;DHT22;26604;53.596;10.042;2022-10-31T01:34:20;21.30;25.40
15638;DHT22;26604;53.596;10.042;2022-10-31T01:36:47;21.30;25.30
15638;DHT22;26604;53.596;10.042;2022-10-31T01:39:17;21.30;25.20
15638;DHT22;26604;53.596;10.042;2022-10-31T01:41:47;21.30;25.00
15638;DHT22;26604;53.596;10.042;2022-10-31T01:44:51;21.30;25.00
15638;DHT22;26604;53.596;10.042;2022-10-31T01:47:24;21.30;24.90
15638;DHT22;26604;53.596;10.042;2022-10-31T01:49:55;21.30;24.80
15638;DHT22;26604;53.596;10.042;2022-10-31T01:52:24;21.30;24.70
15638;DHT22;26604;53.596;10.042;2022-10-31T01:54:56;21.30;25.20
15638;DHT22;26604;53.596;10.042;2022-10-31T01:57:25;21.30;25.10
15638;DHT22;26604;53.596;10.042;2022-10-31T01:59:56;21.30;24.90
15638;DHT22;26604;53.596;10.042;2022-10-31T02:02:25;21.30;24.70
15638;DHT22;26604;53.596;10.042;2022-10-31T02:04:54;21.30;24.80
15638;DHT22;26604;53.596;10.042;2022-10-31T02:07:25;21.30;24.80
15638;DHT22;26604;53.596;10.042;2022-10-31T02:09:53;21.30;24.90
15638;DHT22;26604;53.596;10.042;2022-10-31T02:12:21;21.30;25.00
15638;DHT22;26604;53.596;10.042;2022-10-31T02:14:48;21.30;24.70
15638;DHT22;26604;53.596;10.042;2022-10-31T02:17:16;21.30;24.90
15638;DHT22;26604;53.596;10.042;2022-10-31T02:19:51;21.30;25.10
15638;DHT22;26604;53.596;10.042;2022-10-31T02:22:24;21.30;25.30
15638;DHT22;26604;53.596;10.042;2022-10-31T02:25:08;21.30;25.40
15638;DHT22;26604;53.596;10.042;2022-10-31T02:27:53;21.30;25.10
15638;DHT22;26604;53.596;10.042;2022-10-31T02:30:28;21.30;25.30
15638;DHT22;26604;53.596;10.042;2022-10-31T02:33:10;21.30;25.30
15638;DHT22;26604;53.596;10.042;2022-10-31T02:35:48;21.30;25.40
15638;DHT22;26604;53.596;10.042;2022-10-31T02:38:27;21.30;25.10
15638;DHT22;26604;53.596;10.042;2022-10-31T02:41:01;21.30;25.00
15638;DHT22;26604;53.596;10.042;2022-10-31T02:43:37;21.30;25.10
15638;DHT22;26604;53.596;10.042;2022-10-31T02:46:11;21.30;25.50
15638;DHT22;26604;53.596;10.042;2022-10-31T02:48:44;21.30;25.20
15638;DHT22;26604;53.596;10.042;2022-10-31T02:51:12;21.30;24.90
15638;DHT22;26604;53.596;10.042;2022-10-31T02:53:39;21.30;25.00
15638;DHT22;26604;53.596;10.042;2022-10-31T02:56:08;21.30;24.70
15638;DHT22;26604;53.596;10.042;2022-10-31T02:58:40;21.30;24.90
15638;DHT22;26604;53.596;10.042;2022-10-31T03:01:27;21.30;24.70
15638;DHT22;26604;53.596;10.042;2022-10-31T03:04:12;21.30;24.80
15638;DHT22;26604;53.596;10.042;2022-10-31T03:06:48;21.30;24.60
15638;DHT22;26604;53.596;10.042;2022-10-31T03:09:22;21.30;24.60
15638;DHT22;26604;53.596;10.042;2022-10-31T03:11:54;21.30;24.60
15638;DHT22;26604;53.596;10.042;2022-10-31T03:14:29;21.30;24.60
15638;DHT22;26604;53.596;10.042;2022-10-31T03:17:01;21.30;24.80
15638;DHT22;26604;53.596;10.042;2022-10-31T03:19:34;21.30;24.50
15638;DHT22;26604;53.596;10.042;2022-10-31T03:22:03;21.30;24.50
15638;DHT22;26604;53.596;10.042;2022-10-31T03:24:34;21.30;24.50
15638;DHT22;26604;53.596;10.042;2022-10-31T03:27:03;21.30;24.50
15638;DHT22;26604;53.596;10.042;2022-10-31T03:29:34;21.30;24.50
15638;DHT22;26604;53.596;10.042;2022-10-31T03:32:06;21.30;24.40
15638;DHT22;26604;53.596;10.042;2022-10-31T03:34:37;21.30;24.30
15638;DHT22;26604;53.596;10.042;2022-10-31T03:37:08;21.20;24.20
15638;DHT22;26604;53.596;10.042;2022-10-31T03:39:36;21.30;24.20
15638;DHT22;26604;53.596;10.042;2022-10-31T03:42:08;21.30;24.20
15638;DHT22;26604;53.596;10.042;2022-10-31T03:44:39;21.30;24.10
15638;DHT22;26604;53.596;10.042;2022-10-31T03:47:08;21.30;24.10
15638;DHT22;26604;53.596;10.042;2022-10-31T03:49:36;21.30;24.00
15638;DHT22;26604;53.596;10.042;2022-10-31T03:52:10;21.30;24.00
15638;DHT22;26604;53.596;10.042;2022-10-31T03:54:42;21.30;24.10
15638;DHT22;26604;53.596;10.042;2022-10-31T03:57:15;21.30;23.80
15638;DHT22;26604;53.596;10.042;2022-10-31T03:59:46;21.30;23.70
15638;DHT22;26604;53.596;10.042;2022-10-31T04:02:16;21.30;23.70
15638;DHT22;26604;53.596;10.042;2022-10-31T04:04:46;21.30;23.50
15638;DHT22;26604;53.596;10.042;2022-10-31T04:07:14;21.30;23.40
15638;DHT22;26604;53.596;10.042;2022-10-31T04:09:45;21.30;23.40
15638;DHT22;26604;53.596;10.042;2022-10-31T04:12:14;21.30;23.30
15638;DHT22;26604;53.596;10.042;2022-10-31T04:14:45;21.30;23.30
15638;DHT22;26604;53.596;10.042;2022-10-31T04:17:15;21.30;23.60
15638;DHT22;26604;53.596;10.042;2022-10-31T04:19:44;21.30;23.10
15638;DHT22;26604;53.596;10.042;2022-10-31T04:22:11;21.30;22.90
15638;DHT22;26604;53.596;10.042;2022-10-31T04:24:39;21.30;22.80
15638;DHT22;26604;53.596;10.042;2022-10-31T04:27:07;21.30;22.80
15638;DHT22;26604;53.596;10.042;2022-10-31T04:29:34;21.30;22.70
15638;DHT22;26604;53.596;10.042;2022-10-31T04:32:01;21.30;22.60
15638;DHT22;26604;53.596;10.042;2022-10-31T04:34:27;21.30;22.60
15638;DHT22;26604;53.596;10.042;2022-10-31T04:36:56;21.30;22.60
15638;DHT22;26604;53.596;10.042;2022-10-31T04:39:23;21.30;22.60
15638;DHT22;26604;53.596;10.042;2022-10-31T04:41:49;21.30;22.50
15638;DHT22;26604;53.596;10.042;2022-10-31T04:44:16;21.30;22.40
15638;DHT22;26604;53.596;10.042;2022-10-31T04:46:43;21.30;22.50
15638;DHT22;26604;53.596;10.042;2022-10-31T04:49:10;21.30;22.40
15638;DHT22;26604;53.596;10.042;2022-10-31T04:51:37;21.30;22.40
15638;DHT22;26604;53.596;10.042;2022-10-31T04:54:05;21.30;22.40
15638;DHT22;26604;53.596;10.042;2022-10-31T04:56:32;21.30;22.20
15638;DHT22;26604;53.596;10.042;2022-10-31T04:58:59;21.30;22.20
15638;DHT22;26604;53.596;10.042;2022-10-31T05:01:26;21.20;22.00
15638;DHT22;26604;53.596;10.042;2022-10-31T05:03:53;21.30;22.00
15638;DHT22;26604;53.596;10.042;2022-10-31T05:06:20;21.20;21.90
15638;DHT22;26604;53.596;10.042;2022-10-31T05:08:46;21.20;21.70
15638;DHT22;26604;53.596;10.042;2022-10-31T05:11:15;21.20;21.70
15638;DHT22;26604;53.596;10.042;2022-10-31T05:13:41;21.20;21.60
15638;DHT22;26604;53.596;10.042;2022-10-31T05:16:08;21.20;21.60
15638;DHT22;26604;53.596;10.042;2022-10-31T05:18:35;21.20;21.50
15638;DHT22;26604;53.596;10.042;2022-10-31T05:21:02;21.20;21.50
15638;DHT22;26604;53.596;10.042;2022-10-31T05:23:29;21.30;21.30
15638;DHT22;26604;53.596;10.042;2022-10-31T05:25:56;21.20;21.30
15638;DHT22;26604;53.596;10.042;2022-10-31T05:28:24;21.20;21.40
15638;DHT22;26604;53.596;10.042;2022-10-31T05:30:51;21.20;21.50
15638;DHT22;26604;53.596;10.042;2022-10-31T05:33:18;21.20;21.40
15638;DHT22;26604;53.596;10.042;2022-10-31T05:35:45;21.20;21.30
15638;DHT22;26604;53.596;10.042;2022-10-31T05:38:12;21.20;21.40
15638;DHT22;26604;53.596;10.042;2022-10-31T05:40:38;21.20;21.50
15638;DHT22;26604;53.596;10.042;2022-10-31T05:43:05;21.20;21.50
15638;DHT22;26604;53.596;10.042;2022-10-31T05:45:33;21.20;21.50
15638;DHT22;26604;53.596;10.042;2022-10-31T05:48:01;21.20;21.50
15638;DHT22;26604;53.596;10.042;2022-10-31T05:50:30;21.20;21.40
15638;DHT22;26604;53.596;10.042;2022-10-31T05:52:59;21.20;21.30
15638;DHT22;26604;53.596;10.042;2022-10-31T05:55:26;21.20;21.30
15638;DHT22;26604;53.596;10.042;2022-10-31T05:57:53;21.20;21.30
15638;DHT22;26604;53.596;10.042;2022-10-31T06:00:21;21.20;21.30
15638;DHT22;26604;53.596;10.042;2022-10-31T06:02:49;21.20;21.40
15638;DHT22;26604;53.596;10.042;2022-10-31T06:05:23;21.20;21.40
15638;DHT22;26604;53.596;10.042;2022-10-31T06:07:50;21.20;21.50
15638;DHT22;26604;53.596;10.042;2022-10-31T06:10:17;21.30;21.50
15638;DHT22;26604;53.596;10.042;2022-10-31T06:12:45;21.20;21.40
15638;DHT22;26604;53.596;10.042;2022-10-31T06:15:11;21.20;21.50
15638;DHT22;26604;53.596;10.042;2022-10-31T06:17:38;21.20;21.70
15638;DHT22;26604;53.596;10.042;2022-10-31T06:20:08;21.20;21.30
15638;DHT22;26604;53.596;10.042;2022-10-31T06:22:35;21.20;21.30
15638;DHT22;26604;53.596;10.042;2022-10-31T06:25:02;21.20;21.40
15638;DHT22;26604;53.596;10.042;2022-10-31T06:27:29;21.20;21.30
15638;DHT22;26604;53.596;10.042;2022-10-31T06:29:55;21.20;21.10
15638;DHT22;26604;53.596;10.042;2022-10-31T06:32:22;21.20;21.20
15638;DHT22;26604;53.596;10.042;2022-10-31T06:34:49;21.20;21.00
15638;DHT22;26604;53.596;10.042;2022-10-31T06:37:17;21.20;21.00
15638;DHT22;26604;53.596;10.042;2022-10-31T06:39:44;21.20;20.90
15638;DHT22;26604;53.596;10.042;2022-10-31T06:42:11;21.20;20.90
15638;DHT22;26604;53.596;10.042;2022-10-31T06:44:38;21.20;20.90
15638;DHT22;26604;53.596;10.042;2022-10-31T06:47:05;21.20;20.80
15638;DHT22;26604;53.596;10.042;2022-10-31T06:49:32;21.20;21.00
15638;DHT22;26604;53.596;10.042;2022-10-31T06:51:59;21.20;20.60
15638;DHT22;26604;53.596;10.042;2022-10-31T06:54:29;21.20;20.90
15638;DHT22;26604;53.596;10.042;2022-10-31T06:56:56;21.20;20.80
15638;DHT22;26604;53.596;10.042;2022-10-31T06:59:23;21.20;20.80
15638;DHT22;26604;53.596;10.042;2022-10-31T07:01:50;21.20;20.70
15638;DHT22;26604;53.596;10.042;2022-10-31T07:04:17;21.20;21.40
15638;DHT22;26604;53.596;10.042;2022-10-31T07:06:44;21.30;23.40
15638;DHT22;26604;53.596;10.042;2022-10-31T07:09:11;21.30;23.80
15638;DHT22;26604;53.596;10.042;2022-10-31T07:11:39;21.30;23.30
15638;DHT22;26604;53.596;10.042;2022-10-31T07:14:06;21.30;23.00
15638;DHT22;26604;53.596;10.042;2022-10-31T07:16:33;21.30;22.70
15638;DHT22;26604;53.596;10.042;2022-10-31T07:19:00;21.30;22.20
15638;DHT22;26604;53.596;10.042;2022-10-31T07:21:26;21.30;22.20
15638;DHT22;26604;53.596;10.042;2022-10-31T07:23:53;21.30;21.80
15638;DHT22;26604;53.596;10.042;2022-10-31T07:26:20;21.30;21.60
15638;DHT22;26604;53.596;10.042;2022-10-31T07:28:48;21.30;21.50
15638;DHT22;26604;53.596;10.042;2022-10-31T07:31:15;21.30;21.30
15638;DHT22;26604;53.596;10.042;2022-10-31T07:33:42;21.30;21.20
15638;DHT22;26604;53.596;10.042;2022-10-31T07:36:09;21.30;21.10
15638;DHT22;26604;53.596;10.042;2022-10-31T07:38:36;21.30;21.10
15638;DHT22;26604;53.596;10.042;2022-10-31T07:41:02;21.30;21.20
15638;DHT22;26604;53.596;10.042;2022-10-31T07:43:29;21.20;21.00
15638;DHT22;26604;53.596;10.042;2022-10-31T07:45:57;21.20;21.00
15638;DHT22;26604;53.596;10.042;2022-10-31T07:48:24;21.20;20.90
15638;DHT22;26604;53.596;10.042;2022-10-31T07:50:51;21.30;21.10
15638;DHT22;26604;53.596;10.042;2022-10-31T07:53:18;21.30;21.30
15638;DHT22;26604;53.596;10.042;2022-10-31T07:55:45;21.30;21.90
15638;DHT22;26604;53.596;10.042;2022-10-31T07:58:13;21.30;22.20
15638;DHT22;26604;53.596;10.042;2022-10-31T08:00:42;21.30;22.70
15638;DHT22;26604;53.596;10.042;2022-10-31T08:03:13;21.30;23.60
15638;DHT22;26604;53.596;10.042;2022-10-31T08:05:41;21.30;23.70
15638;DHT22;26604;53.596;10.042;2022-10-31T08:08:08;21.30;24.10
15638;DHT22;26604;53.596;10.042;2022-10-31T08:10:35;21.30;24.00
15638;DHT22;26604;53.596;10.042;2022-10-31T08:13:03;21.30;24.00
15638;DHT22;26604;53.596;10.042;2022-10-31T08:15:31;21.30;23.80
15638;DHT22;26604;53.596;10.042;2022-10-31T08:17:59;21.30;23.50
15638;DHT22;26604;53.596;10.042;2022-10-31T08:20:32;21.30;23.10
15638;DHT22;26604;53.596;10.042;2022-10-31T08:23:00;21.30;22.50
15638;DHT22;26604;53.596;10.042;2022-10-31T08:25:29;21.30;21.90
15638;DHT22;26604;53.596;10.042;2022-10-31T08:27:56;21.30;21.50
15638;DHT22;26604;53.596;10.042;2022-10-31T08:30:25;21.30;21.10
15638;DHT22;26604;53.596;10.042;2022-10-31T08:33:00;21.30;20.60
15638;DHT22;26604;53.596;10.042;2022-10-31T08:35:27;21.30;20.50
15638;DHT22;26604;53.596;10.042;2022-10-31T08:37:56;21.30;20.30
15638;DHT22;26604;53.596;10.042;2022-10-31T08:40:25;21.30;20.00
15638;DHT22;26604;53.596;10.042;2022-10-31T08:42:56;21.30;19.60
15638;DHT22;26604;53.596;10.042;2022-10-31T08:45:24;21.60;19.40
15638;DHT22;26604;53.596;10.042;2022-10-31T08:47:51;21.30;19.00
15638;DHT22;26604;53.596;10.042;2022-10-31T08:50:18;21.30;18.80
15638;DHT22;26604;53.596;10.042;2022-10-31T08:52:44;21.30;18.60
15638;DHT22;26604;53.596;10.042;2022-10-31T08:55:13;21.30;18.70
15638;DHT22;26604;53.596;10.042;2022-10-31T08:57:39;21.30;18.60
15638;DHT22;26604;53.596;10.042;2022-10-31T09:00:07;21.30;18.80
15638;DHT22;26604;53.596;10.042;2022-10-31T09:02:34;21.30;18.90
15638;DHT22;26604;53.596;10.042;2022-10-31T09:05:02;21.30;19.00
15638;DHT22;26604;53.596;10.042;2022-10-31T09:07:29;21.30;19.10
15638;DHT22;26604;53.596;10.042;2022-10-31T09:09:56;21.30;19.10
15638;DHT22;26604;53.596;10.042;2022-10-31T09:12:24;21.30;19.10
15638;DHT22;26604;53.596;10.042;2022-10-31T09:14:51;21.30;19.10
15638;DHT22;26604;53.596;10.042;2022-10-31T09:17:18;21.30;19.10
15638;DHT22;26604;53.596;10.042;2022-10-31T09:19:45;21.30;19.10
15638;DHT22;26604;53.596;10.042;2022-10-31T09:22:14;21.30;19.00
15638;DHT22;26604;53.596;10.042;2022-10-31T09:24:41;21.30;19.20
15638;DHT22;26604;53.596;10.042;2022-10-31T09:27:08;21.30;18.60
15638;DHT22;26604;53.596;10.042;2022-10-31T09:29:36;21.30;18.40
15638;DHT22;26604;53.596;10.042;2022-10-31T09:32:03;21.30;18.10
15638;DHT22;26604;53.596;10.042;2022-10-31T09:34:30;21.30;18.00
15638;DHT22;26604;53.596;10.042;2022-10-31T09:36:57;21.30;18.10
15638;DHT22;26604;53.596;10.042;2022-10-31T09:39:24;21.30;18.30
15638;DHT22;26604;53.596;10.042;2022-10-31T09:42:02;21.30;18.40
15638;DHT22;26604;53.596;10.042;2022-10-31T09:44:39;21.30;18.60
15638;DHT22;26604;53.596;10.042;2022-10-31T09:47:12;21.30;18.90
15638;DHT22;26604;53.596;10.042;2022-10-31T09:49:58;21.30;19.30
15638;DHT22;26604;53.596;10.042;2022-10-31T09:52:29;21.30;19.60
15638;DHT22;26604;53.596;10.042;2022-10-31T09:55:00;21.30;19.70
15638;DHT22;26604;53.596;10.042;2022-10-31T09:57:31;21.30;19.90
15638;DHT22;26604;53.596;10.042;2022-10-31T10:00:01;21.30;20.00
15638;DHT22;26604;53.596;10.042;2022-10-31T10:02:34;21.30;20.10
15638;DHT22;26604;53.596;10.042;2022-10-31T10:05:04;21.40;20.20
15638;DHT22;26604;53.596;10.042;2022-10-31T10:07:40;21.30;20.10
15638;DHT22;26604;53.596;10.042;2022-10-31T10:10:14;21.40;20.10
15638;DHT22;26604;53.596;10.042;2022-10-31T10:12:58;21.40;19.80
15638;DHT22;26604;53.596;10.042;2022-10-31T10:15:41;21.40;19.50
15638;DHT22;26604;53.596;10.042;2022-10-31T10:18:18;21.40;19.10
15638;DHT22;26604;53.596;10.042;2022-10-31T10:20:59;21.40;20.00
15638;DHT22;26604;53.596;10.042;2022-10-31T10:23:39;21.40;21.80
15638;DHT22;26604;53.596;10.042;2022-10-31T10:26:15;21.50;23.60
15638;DHT22;26604;53.596;10.042;2022-10-31T10:28:46;21.50;24.80
15638;DHT22;26604;53.596;10.042;2022-10-31T10:31:18;21.60;26.40
15638;DHT22;26604;53.596;10.042;2022-10-31T10:33:58;21.70;25.20
15638;DHT22;26604;53.596;10.042;2022-10-31T10:36:32;21.70;23.90
15638;DHT22;26604;53.596;10.042;2022-10-31T10:39:04;21.80;23.20
15638;DHT22;26604;53.596;10.042;2022-10-31T10:41:34;21.70;21.80
15638;DHT22;26604;53.596;10.042;2022-10-31T10:44:01;21.70;21.10
15638;DHT22;26604;53.596;10.042;2022-10-31T10:46:40;21.70;20.40
15638;DHT22;26604;53.596;10.042;2022-10-31T10:49:30;21.60;19.20
15638;DHT22;26604;53.596;10.042;2022-10-31T10:52:01;21.60;18.40
15638;DHT22;26604;53.596;10.042;2022-10-31T10:54:41;21.60;17.80
15638;DHT22;26604;53.596;10.042;2022-10-31T10:57:37;21.50;17.30
15638;DHT22;26604;53.596;10.042;2022-10-31T11:00:16;21.50;16.80
15638;DHT22;26604;53.596;10.042;2022-10-31T11:02:45;21.50;16.60
15638;DHT22;26604;53.596;10.042;2022-10-31T11:05:18;21.50;16.10
15638;DHT22;26604;53.596;10.042;2022-10-31T11:07:46;21.50;16.00
15638;DHT22;26604;53.596;10.042;2022-10-31T11:10:15;21.50;15.70
15638;DHT22;26604;53.596;10.042;2022-10-31T11:12:43;21.50;15.50
15638;DHT22;26604;53.596;10.042;2022-10-31T11:15:18;21.50;15.50
15638;DHT22;26604;53.596;10.042;2022-10-31T11:17:50;21.50;15.00
15638;DHT22;26604;53.596;10.042;2022-10-31T11:20:27;21.50;14.80
15638;DHT22;26604;53.596;10.042;2022-10-31T11:23:03;21.40;14.70
15638;DHT22;26604;53.596;10.042;2022-10-31T11:25:30;21.50;14.60
15638;DHT22;26604;53.596;10.042;2022-10-31T11:28:01;21.50;14.50
15638;DHT22;26604;53.596;10.042;2022-10-31T11:30:29;21.50;14.30
15638;DHT22;26604;53.596;10.042;2022-10-31T11:32:58;21.50;14.40
15638;DHT22;26604;53.596;10.042;2022-10-31T11:35:25;21.50;14.40
15638;DHT22;26604;53.596;10.042;2022-10-31T11:37:54;21.50;14.40
15638;DHT22;26604;53.596;10.042;2022-10-31T11:40:25;21.50;14.50
15638;DHT22;26604;53.596;10.042;2022-10-31T11:42:55;21.50;15.20
15638;DHT22;26604;53.596;10.042;2022-10-31T11:45:29;21.50;15.00
15638;DHT22;26604;53.596;10.042;2022-10-31T11:48:00;21.50;15.00
15638;DHT22;26604;53.596;10.042;2022-10-31T11:50:32;21.50;15.10
15638;DHT22;26604;53.596;10.042;2022-10-31T11:53:01;21.50;15.20
15638;DHT22;26604;53.596;10.042;2022-10-31T11:55:33;21.50;15.20
15638;DHT22;26604;53.596;10.042;2022-10-31T11:58:00;21.50;15.40
15638;DHT22;26604;53.596;10.042;2022-10-31T12:00:29;21.50;15.50
15638;DHT22;26604;53.596;10.042;2022-10-31T12:03:14;21.50;15.50
15638;DHT22;26604;53.596;10.042;2022-10-31T12:05:44;21.40;15.70
15638;DHT22;26604;53.596;10.042;2022-10-31T12:08:12;21.40;15.80
15638;DHT22;26604;53.596;10.042;2022-10-31T12:10:48;21.40;15.70
15638;DHT22;26604;53.596;10.042;2022-10-31T12:13:28;21.40;15.80
15638;DHT22;26604;53.596;10.042;2022-10-31T12:16:02;21.40;15.90
15638;DHT22;26604;53.596;10.042;2022-10-31T12:18:52;21.40;16.00
15638;DHT22;26604;53.596;10.042;2022-10-31T12:21:34;21.40;16.00
15638;DHT22;26604;53.596;10.042;2022-10-31T12:24:10;21.40;16.00
15638;DHT22;26604;53.596;10.042;2022-10-31T12:26:43;21.40;16.00
15638;DHT22;26604;53.596;10.042;2022-10-31T12:29:24;21.40;15.90
15638;DHT22;26604;53.596;10.042;2022-10-31T12:32:03;21.40;16.10
15638;DHT22;26604;53.596;10.042;2022-10-31T12:34:54;21.40;16.00
15638;DHT22;26604;53.596;10.042;2022-10-31T12:37:34;21.40;15.90
15638;DHT22;26604;53.596;10.042;2022-10-31T12:40:19;21.40;15.80
15638;DHT22;26604;53.596;10.042;2022-10-31T12:43:05;21.40;15.90
15638;DHT22;26604;53.596;10.042;2022-10-31T12:45:52;21.40;15.90
15638;DHT22;26604;53.596;10.042;2022-10-31T12:48:40;21.40;15.70
15638;DHT22;26604;53.596;10.042;2022-10-31T12:51:15;21.40;15.90
15638;DHT22;26604;53.596;10.042;2022-10-31T12:53:53;21.40;15.70
15638;DHT22;26604;53.596;10.042;2022-10-31T12:56:31;21.40;15.70
15638;DHT22;26604;53.596;10.042;2022-10-31T12:59:02;21.40;15.80
15638;DHT22;26604;53.596;10.042;2022-10-31T13:01:35;21.40;15.80
15638;DHT22;26604;53.596;10.042;2022-10-31T13:04:09;21.40;16.00
15638;DHT22;26604;53.596;10.042;2022-10-31T13:06:42;21.40;16.00
15638;DHT22;26604;53.596;10.042;2022-10-31T13:09:14;21.40;16.00
15638;DHT22;26604;53.596;10.042;2022-10-31T13:11:45;21.40;16.10
15638;DHT22;26604;53.596;10.042;2022-10-31T13:14:27;21.40;16.10
15638;DHT22;26604;53.596;10.042;2022-10-31T13:16:56;21.40;16.20
15638;DHT22;26604;53.596;10.042;2022-10-31T13:19:29;21.40;16.50
15638;DHT22;26604;53.596;10.042;2022-10-31T13:22:04;21.40;15.90
15638;DHT22;26604;53.596;10.042;2022-10-31T13:24:36;21.40;15.60
15638;DHT22;26604;53.596;10.042;2022-10-31T13:27:13;21.40;15.60
15638;DHT22;26604;53.596;10.042;2022-10-31T13:29:44;21.40;15.70
15638;DHT22;26604;53.596;10.042;2022-10-31T13:32:13;21.40;15.80
15638;DHT22;26604;53.596;10.042;2022-10-31T13:34:42;21.40;15.70
15638;DHT22;26604;53.596;10.042;2022-10-31T13:37:17;21.40;15.90
15638;DHT22;26604;53.596;10.042;2022-10-31T13:40:00;21.40;15.90
15638;DHT22;26604;53.596;10.042;2022-10-31T13:42:41;21.30;15.80
15638;DHT22;26604;53.596;10.042;2022-10-31T13:45:18;21.30;15.80
15638;DHT22;26604;53.596;10.042;2022-10-31T13:47:55;21.40;16.00
15638;DHT22;26604;53.596;10.042;2022-10-31T13:50:24;21.40;15.90
15638;DHT22;26604;53.596;10.042;2022-10-31T13:53:09;21.40;15.70
15638;DHT22;26604;53.596;10.042;2022-10-31T13:55:39;21.40;15.70
15638;DHT22;26604;53.596;10.042;2022-10-31T13:58:22;21.40;15.60
15638;DHT22;26604;53.596;10.042;2022-10-31T14:01:03;21.40;15.60
15638;DHT22;26604;53.596;10.042;2022-10-31T14:03:33;21.40;15.60
15638;DHT22;26604;53.596;10.042;2022-10-31T14:06:02;21.40;15.50
15638;DHT22;26604;53.596;10.042;2022-10-31T14:08:34;21.40;15.60
15638;DHT22;26604;53.596;10.042;2022-10-31T14:11:01;21.40;15.60
15638;DHT22;26604;53.596;10.042;2022-10-31T14:13:32;21.40;15.70
15638;DHT22;26604;53.596;10.042;2022-10-31T14:16:05;21.40;15.60
15638;DHT22;26604;53.596;10.042;2022-10-31T14:18:35;21.40;15.60
15638;DHT22;26604;53.596;10.042;2022-10-31T14:21:14;21.40;15.50
15638;DHT22;26604;53.596;10.042;2022-10-31T14:23:43;21.40;15.60
15638;DHT22;26604;53.596;10.042;2022-10-31T14:26:30;21.30;15.40
15638;DHT22;26604;53.596;10.042;2022-10-31T14:28:59;21.30;15.50
15638;DHT22;26604;53.596;10.042;2022-10-31T14:31:31;21.30;15.50
15638;DHT22;26604;53.596;10.042;2022-10-31T14:34:02;21.30;15.60
15638;DHT22;26604;53.596;10.042;2022-10-31T14:36:39;21.30;15.60
15638;DHT22;26604;53.596;10.042;2022-10-31T14:39:13;21.30;15.70
15638;DHT22;26604;53.596;10.042;2022-10-31T14:41:53;21.30;15.70
15638;DHT22;26604;53.596;10.042;2022-10-31T14:44:43;21.30;15.80
15638;DHT22;26604;53.596;10.042;2022-10-31T14:47:20;21.30;15.90
15638;DHT22;26604;53.596;10.042;2022-10-31T14:50:15;21.30;15.60
15638;DHT22;26604;53.596;10.042;2022-10-31T14:52:49;21.30;15.60
15638;DHT22;26604;53.596;10.042;2022-10-31T14:55:18;21.30;15.60
15638;DHT22;26604;53.596;10.042;2022-10-31T14:57:49;21.30;15.80
15638;DHT22;26604;53.596;10.042;2022-10-31T15:00:19;21.30;16.00
15638;DHT22;26604;53.596;10.042;2022-10-31T15:02:53;21.30;15.80
15638;DHT22;26604;53.596;10.042;2022-10-31T15:05:25;21.30;15.70
15638;DHT22;26604;53.596;10.042;2022-10-31T15:07:54;21.30;15.80
15638;DHT22;26604;53.596;10.042;2022-10-31T15:10:25;21.30;15.80
15638;DHT22;26604;53.596;10.042;2022-10-31T15:12:53;21.30;15.80
15638;DHT22;26604;53.596;10.042;2022-10-31T15:15:21;21.30;15.80
15638;DHT22;26604;53.596;10.042;2022-10-31T15:17:51;21.30;15.80
15638;DHT22;26604;53.596;10.042;2022-10-31T15:20:21;21.30;16.20
15638;DHT22;26604;53.596;10.042;2022-10-31T15:22:49;21.30;15.90
15638;DHT22;26604;53.596;10.042;2022-10-31T15:25:20;21.30;16.20
15638;DHT22;26604;53.596;10.042;2022-10-31T15:27:49;21.30;16.30
15638;DHT22;26604;53.596;10.042;2022-10-31T15:30:18;21.20;15.90
15638;DHT22;26604;53.596;10.042;2022-10-31T15:32:46;21.20;16.20
15638;DHT22;26604;53.596;10.042;2022-10-31T15:35:25;21.20;16.10
15638;DHT22;26604;53.596;10.042;2022-10-31T15:37:53;21.20;16.00